Aérodrome :
LOGIN :

S'inscrire | Disclaimer

   EN    FR    IT 

 










Légende :    VFR   VFR Marginal   IFR   IFR Intensif   IFR Très Intensif
Visi : 
Plafond : 
>= 8 km
>= 3000ft
5 à 8 km
1000 à 3000 ft
1500m à 5 km
500 à 1000 ft
800 à 1500m
200 à 500 ft
< 800m
< 200 ft
Symboles :   Orages  Brouillard  Fortes neiges  Fortes précipitations  Vent > 20 kt
SIGMETs :   Divers  Orages  Givrage  Turbulence  Onde Orograph.  Cendres Volcan.






- Altitude de l'aérodrome : 2096 ft
- Code IATA : AUR


LFLW - Aurillac

DERNIER METAR :
  • 190630Z AUTO VRB02KT CAVOK 20/14 Q1014 NOSIG

METARs EXPIRÉS :
  • 190600Z AUTO 00000KT CAVOK 19/13 Q1014 NOSIG
  • 190530Z AUTO 00000KT CAVOK 16/13 Q1013
  • 190500Z AUTO 10005KT CAVOK 15/12 Q1013
  • 190430Z AUTO 12003KT 9999 FEW056 14/12 Q1013
  • 190400Z AUTO 15002KT 9999 BKN054 OVC140 15/12 Q1013
  • 190330Z AUTO 00000KT 9999 FEW054 BKN150 16/12 Q1013
  • 190300Z AUTO 09005KT CAVOK 17/12 Q1013
  • 190230Z AUTO 11008KT 080V150 CAVOK 18/12 Q1013
  • 190200Z AUTO 13008KT 100V160 CAVOK 18/12 Q1013

TAF TAF LFLW
Valide du 19 à 06h jusqu'au 19 à 15h UTC


190500Z 1906/1915 14006KT CAVOK
TEMPO 1913/1915 SHRA SCT030TCU
PROB30
TEMPO 1913/1915 VRB15G35KT 2000 TSRA BKN025CB



MET'MAP, la Météo Aéronautique d'un coup d'oeil ! - Copyright ORBIFLY Décembre 2007 - Disclaimer

ORBIFLY MET'MAP TEAM :

Programmation & Développement : Alexandra Zaïnal
Sur une idée originale de : Baudouin d'Aumeries
Soutien technique & logistique : Manuel Goepfert
Assistance : Marc-Olivier Méhu




SOURCES & CREDITS :

   NOAA